Time;durP1;ratioP1;P1;durP2;ratioP2;P2;SDS_P1;SDS_P2;PMS_P1;PMS_P2;Temp;Humidity;BMP_temperature;BMP_pressure;BME280_temperature;BME280_humidity;BME280_pressure;Samples;Min_cycle;Max_cycle;Signal;HPM_P1;HPM_P2
2023/01/09 00:00:21;;;;;;;2.55;1.17;;;8.00;99.90;;;;;;5072899;28;20182;-79
2023/01/09 00:02:47;;;;;;;2.22;0.80;;;8.00;99.90;;;;;;5072948;28;20209;-78
2023/01/09 00:05:14;;;;;;;7.28;1.08;;;8.00;99.90;;;;;;5073098;28;20182;-84
2023/01/09 00:07:40;;;;;;;2.33;1.05;;;7.90;99.90;;;;;;5072920;28;20162;-79
2023/01/09 00:10:07;;;;;;;1.42;0.80;;;7.90;99.90;;;;;;5072537;28;20607;-79
2023/01/09 00:12:33;;;;;;;2.63;1.00;;;7.80;99.90;;;;;;5072528;28;20194;-79
2023/01/09 00:14:59;;;;;;;2.13;1.02;;;8.00;99.90;;;;;;5071683;28;20201;-79
2023/01/09 00:17:24;;;;;;;1.45;0.90;;;7.90;99.90;;;;;;5072833;28;20627;-79
2023/01/09 00:19:50;;;;;;;1.10;1.00;;;8.10;99.90;;;;;;5072494;28;20174;-85
2023/01/09 00:22:16;;;;;;;1.50;0.82;;;8.00;99.90;;;;;;5072625;28;20209;-79
2023/01/09 00:24:41;;;;;;;1.33;0.88;;;8.00;99.90;;;;;;5087971;28;20186;-79
2023/01/09 00:27:09;;;;;;;3.08;1.15;;;7.90;99.90;;;;;;5084420;28;20167;-79
2023/01/09 00:29:35;;;;;;;2.17;0.90;;;8.00;99.90;;;;;;5084542;28;20244;-79
2023/01/09 00:32:01;;;;;;;1.20;1.10;;;7.80;99.90;;;;;;5082019;28;20166;-79
2023/01/09 00:34:28;;;;;;;3.25;0.98;;;7.70;99.90;;;;;;5079112;28;20220;-80
2023/01/09 00:36:58;;;;;;;1.45;0.90;;;7.60;99.90;;;;;;5080667;28;20196;-79
2023/01/09 00:39:24;;;;;;;2.30;1.00;;;7.70;99.90;;;;;;5081019;28;20189;-80
2023/01/09 00:41:53;;;;;;;8.50;1.00;;;7.70;99.90;;;;;;5083125;28;20162;-80
2023/01/09 00:44:30;;;;;;;3.00;1.02;;;7.70;99.90;;;;;;5081196;28;20202;-85
2023/01/09 00:47:04;;;;;;;1.25;1.15;;;7.70;99.90;;;;;;5082292;28;20244;-86
2023/01/09 00:49:33;;;;;;;2.45;1.13;;;7.70;99.90;;;;;;5082176;28;20301;-79
2023/01/09 00:51:59;;;;;;;3.90;1.25;;;7.80;99.90;;;;;;5081426;28;20226;-85
2023/01/09 00:54:29;;;;;;;1.50;0.90;;;7.70;99.90;;;;;;5084387;28;20213;-85
2023/01/09 00:56:56;;;;;;;1.27;1.15;;;7.50;99.90;;;;;;5073646;28;20175;-82
2023/01/09 00:59:42;;;;;;;1.58;0.80;;;7.50;99.90;;;;;;5086611;28;20175;-80
2023/01/09 01:02:08;;;;;;;3.20;1.23;;;7.60;99.90;;;;;;5080131;28;20232;-85
2023/01/09 01:10:09;;;;;;;7.28;1.08;;;7.50;99.90;;;;;;5079554;28;20344;-87
2023/01/09 01:12:35;;;;;;;2.38;1.00;;;7.50;99.90;;;;;;5079988;28;20662;-80
2023/01/09 01:15:01;;;;;;;1.10;0.90;;;7.40;99.90;;;;;;5080149;28;20201;-79
2023/01/09 01:17:26;;;;;;;4.88;1.13;;;7.30;99.90;;;;;;5077617;28;20175;-80
2023/01/09 01:19:52;;;;;;;4.88;1.13;;;7.30;99.90;;;;;;5078404;28;20159;-81
2023/01/09 01:22:18;;;;;;;3.70;1.10;;;7.30;99.90;;;;;;5085789;28;20627;-80
2023/01/09 01:24:43;;;;;;;4.68;0.70;;;7.40;99.90;;;;;;5091400;28;20214;-79
2023/01/09 01:27:11;;;;;;;12.75;1.33;;;7.40;99.90;;;;;;5090437;28;20197;-81
2023/01/09 01:29:37;;;;;;;3.28;1.25;;;7.30;99.90;;;;;;5080868;28;20236;-81
2023/01/09 01:32:03;;;;;;;2.45;0.73;;;7.20;99.90;;;;;;5077943;28;20639;-81
2023/01/09 01:34:29;;;;;;;5.60;1.63;;;7.20;99.90;;;;;;5078716;28;20666;-81
2023/01/09 01:36:55;;;;;;;1.38;0.90;;;7.20;99.90;;;;;;5079046;28;20162;-80
2023/01/09 01:39:20;;;;;;;6.65;1.20;;;7.10;99.90;;;;;;5078434;28;20224;-79
2023/01/09 01:41:46;;;;;;;7.05;1.88;;;7.20;99.90;;;;;;5079743;28;20166;-79
2023/01/09 01:44:49;;;;;;;0.75;0.68;;;7.30;99.90;;;;;;5079269;28;20216;-82
2023/01/09 01:47:17;;;;;;;5.20;0.80;;;7.30;99.90;;;;;;5078842;28;20174;-87
2023/01/09 01:49:45;;;;;;;2.13;0.95;;;7.40;99.90;;;;;;5079155;28;20208;-80
2023/01/09 01:52:11;;;;;;;6.07;1.05;;;7.50;99.90;;;;;;5077435;28;20167;-80
2023/01/09 01:54:37;;;;;;;1.33;0.70;;;7.50;99.90;;;;;;5076227;28;20190;-79
2023/01/09 01:57:05;;;;;;;2.15;0.95;;;7.40;99.90;;;;;;5077222;28;20236;-79
2023/01/09 01:59:54;;;;;;;1.10;0.68;;;7.40;99.90;;;;;;5074863;28;20189;-82
2023/01/09 02:02:23;;;;;;;10.85;1.20;;;7.50;99.90;;;;;;5075341;28;20258;-80
2023/01/09 02:04:52;;;;;;;1.90;1.10;;;7.50;99.90;;;;;;5076896;28;20674;-80
2023/01/09 02:07:18;;;;;;;4.85;0.98;;;7.60;99.90;;;;;;5076589;28;20159;-80
2023/01/09 02:09:43;;;;;;;2.97;0.90;;;7.60;99.90;;;;;;5077275;28;20221;-79
2023/01/09 02:12:18;;;;;;;3.13;0.73;;;7.80;99.90;;;;;;5076033;28;20528;-79
2023/01/09 02:14:45;;;;;;;6.13;0.82;;;7.90;99.90;;;;;;5077247;28;20177;-79
2023/01/09 02:17:17;;;;;;;4.55;1.08;;;7.90;99.90;;;;;;5076512;28;20216;-80
2023/01/09 02:19:55;;;;;;;3.83;0.77;;;7.90;99.90;;;;;;5077546;28;20230;-79
2023/01/09 02:22:39;;;;;;;7.80;0.80;;;7.90;99.90;;;;;;5075634;28;20182;-79
2023/01/09 02:25:26;;;;;;;2.83;1.10;;;8.00;99.90;;;;;;5074752;28;20193;-80
2023/01/09 02:27:51;;;;;;;7.70;0.93;;;7.90;99.90;;;;;;5076396;28;20290;-80
2023/01/09 02:30:26;;;;;;;7.43;1.10;;;7.90;99.90;;;;;;5076082;28;20832;-79
2023/01/09 02:32:51;;;;;;;3.95;0.88;;;7.90;99.90;;;;;;5076118;28;20178;-81
2023/01/09 02:35:57;;;;;;;4.18;0.98;;;7.80;99.90;;;;;;5075716;28;20213;-85
2023/01/09 02:38:49;;;;;;;6.82;1.00;;;7.90;99.90;;;;;;5076323;28;20688;-80
2023/01/09 02:41:40;;;;;;;3.70;0.68;;;8.10;99.90;;;;;;5076102;28;20697;-80
2023/01/09 02:44:28;;;;;;;5.85;1.00;;;8.10;99.90;;;;;;5075391;28;20898;-79
2023/01/09 02:47:30;;;;;;;3.50;1.20;;;8.10;99.90;;;;;;5076801;28;20190;-80
2023/01/09 02:50:02;;;;;;;5.55;0.90;;;8.10;99.90;;;;;;5073652;28;20637;-80
2023/01/09 02:52:46;;;;;;;7.50;1.13;;;8.00;99.90;;;;;;5074146;28;20268;-85
2023/01/09 02:55:54;;;;;;;5.00;0.90;;;8.10;99.90;;;;;;5074035;28;20679;-79
2023/01/09 02:58:49;;;;;;;6.20;1.00;;;8.10;99.90;;;;;;5071302;28;20194;-80
2023/01/09 03:01:27;;;;;;;1.52;0.63;;;8.20;99.90;;;;;;5073840;28;20595;-80
2023/01/09 03:04:11;;;;;;;3.42;1.27;;;8.10;99.90;;;;;;5074427;28;20210;-86
2023/01/09 03:06:51;;;;;;;2.70;0.80;;;8.20;99.90;;;;;;5072816;28;20204;-84
2023/01/09 03:09:21;;;;;;;5.45;1.35;;;8.10;99.90;;;;;;5073121;28;20627;-85
2023/01/09 03:11:50;;;;;;;8.45;1.45;;;8.10;99.90;;;;;;5074143;28;20174;-79
2023/01/09 03:14:19;;;;;;;4.78;0.82;;;8.10;99.90;;;;;;5073385;28;20182;-80
2023/01/09 03:16:48;;;;;;;4.53;0.80;;;8.20;99.90;;;;;;5072480;28;20178;-80
2023/01/09 03:19:18;;;;;;;3.58;1.00;;;8.20;99.90;;;;;;5072029;28;20166;-83
2023/01/09 03:21:46;;;;;;;4.13;1.13;;;8.20;99.90;;;;;;5073641;28;20179;-82
2023/01/09 03:24:11;;;;;;;2.03;1.35;;;8.30;99.90;;;;;;5078957;28;20189;-80
2023/01/09 03:26:37;;;;;;;1.73;0.63;;;8.20;99.90;;;;;;5093145;28;20166;-79
2023/01/09 03:29:03;;;;;;;5.05;0.90;;;8.20;99.90;;;;;;5079752;28;20209;-80
2023/01/09 03:31:29;;;;;;;3.88;0.60;;;8.30;99.90;;;;;;5071908;28;20162;-80
2023/01/09 03:33:54;;;;;;;3.05;1.20;;;8.30;99.90;;;;;;5073278;28;20197;-85
2023/01/09 03:36:21;;;;;;;7.80;1.20;;;8.40;99.90;;;;;;5072108;28;20163;-79
2023/01/09 03:38:47;;;;;;;3.00;0.95;;;8.30;99.90;;;;;;5072413;28;20215;-79
2023/01/09 03:41:13;;;;;;;4.43;0.82;;;8.30;99.90;;;;;;5071789;28;20154;-79
2023/01/09 03:43:39;;;;;;;4.95;1.08;;;8.30;99.90;;;;;;5071202;28;20212;-79
2023/01/09 03:46:04;;;;;;;7.50;1.05;;;8.30;99.90;;;;;;5073218;28;20174;-81
2023/01/09 03:48:30;;;;;;;6.53;1.05;;;8.20;99.90;;;;;;5072368;28;20213;-79
2023/01/09 03:50:56;;;;;;;5.03;0.95;;;8.00;99.90;;;;;;5073243;28;20172;-81
2023/01/09 03:53:24;;;;;;;3.90;0.90;;;8.00;99.90;;;;;;5072905;28;20171;-82
2023/01/09 03:55:52;;;;;;;3.00;0.88;;;8.10;99.90;;;;;;5072787;28;20167;-80
2023/01/09 03:58:18;;;;;;;8.40;0.90;;;8.10;99.90;;;;;;5072843;28;20163;-82
2023/01/09 04:00:47;;;;;;;4.25;1.20;;;8.20;99.90;;;;;;5072824;28;20166;-80
2023/01/09 04:03:14;;;;;;;7.22;0.75;;;8.20;99.90;;;;;;5071285;28;20205;-79
2023/01/09 04:05:40;;;;;;;3.05;1.13;;;8.30;99.90;;;;;;5072736;28;20171;-80
2023/01/09 04:08:06;;;;;;;8.35;1.35;;;8.30;99.90;;;;;;5071285;28;20177;-81
2023/01/09 04:10:32;;;;;;;6.50;1.00;;;8.20;99.90;;;;;;5072970;28;20202;-83
2023/01/09 04:12:57;;;;;;;8.82;1.33;;;8.20;99.90;;;;;;5071280;28;20204;-79
2023/01/09 04:15:23;;;;;;;7.28;0.90;;;8.10;99.90;;;;;;5072650;28;20186;-81
2023/01/09 04:17:49;;;;;;;5.57;1.42;;;8.20;99.90;;;;;;5071222;28;20174;-80
2023/01/09 04:20:15;;;;;;;8.25;1.40;;;8.30;99.90;;;;;;5071201;28;20162;-81
2023/01/09 04:22:40;;;;;;;12.55;1.40;;;8.30;99.90;;;;;;5072663;28;20573;-80
2023/01/09 04:25:06;;;;;;;14.93;1.92;;;8.30;99.90;;;;;;5072231;28;20186;-80
2023/01/09 04:27:32;;;;;;;2.90;1.42;;;8.30;99.90;;;;;;5071118;28;20174;-80
2023/01/09 04:29:57;;;;;;;5.30;1.20;;;8.30;99.90;;;;;;5072455;28;20206;-80
2023/01/09 04:32:23;;;;;;;4.13;1.65;;;8.40;99.90;;;;;;5072434;28;20533;-85
2023/01/09 04:34:49;;;;;;;3.03;1.13;;;8.30;99.90;;;;;;5071068;28;20252;-81
2023/01/09 04:37:14;;;;;;;6.10;1.10;;;8.40;99.90;;;;;;5071093;28;20163;-79
2023/01/09 04:39:43;;;;;;;3.78;1.50;;;8.40;99.90;;;;;;5072361;28;20649;-80
2023/01/09 04:42:09;;;;;;;4.25;1.25;;;8.50;99.90;;;;;;5072639;28;20619;-79
2023/01/09 04:44:35;;;;;;;4.50;1.02;;;8.50;99.90;;;;;;5072715;28;20570;-80
2023/01/09 04:47:00;;;;;;;7.65;1.88;;;8.50;99.90;;;;;;5073745;28;20212;-80
2023/01/09 04:49:26;;;;;;;5.05;1.52;;;8.60;99.90;;;;;;5083187;28;20209;-80
2023/01/09 04:51:52;;;;;;;13.55;1.75;;;8.60;99.90;;;;;;5077545;28;20167;-81
2023/01/09 04:54:18;;;;;;;10.45;1.42;;;8.60;99.90;;;;;;5076316;28;20194;-78
2023/01/09 04:56:44;;;;;;;6.40;1.83;;;8.50;99.90;;;;;;5072630;28;20658;-79
2023/01/09 04:59:09;;;;;;;5.28;1.23;;;8.50;99.90;;;;;;5073601;28;20162;-79
2023/01/09 05:01:35;;;;;;;8.57;1.38;;;8.50;99.90;;;;;;5076191;28;20166;-79
2023/01/09 05:04:01;;;;;;;12.18;1.33;;;8.40;99.90;;;;;;5080166;28;20189;-79
2023/01/09 05:06:27;;;;;;;7.07;1.88;;;8.40;99.90;;;;;;5075557;28;20286;-79
2023/01/09 05:08:53;;;;;;;5.82;1.20;;;8.30;99.90;;;;;;5076387;28;20208;-80
2023/01/09 05:11:19;;;;;;;7.25;1.70;;;8.40;99.90;;;;;;5076414;28;20163;-79
2023/01/09 05:13:44;;;;;;;6.57;1.50;;;8.30;99.90;;;;;;5077479;28;20186;-79
2023/01/09 05:16:10;;;;;;;9.13;1.08;;;8.40;99.90;;;;;;5077313;28;20189;-81
2023/01/09 05:18:37;;;;;;;6.40;1.30;;;8.40;99.90;;;;;;5076123;28;20698;-80
2023/01/09 05:21:02;;;;;;;4.78;1.38;;;8.30;99.90;;;;;;5078380;28;20203;-80
2023/01/09 05:23:28;;;;;;;11.00;1.42;;;8.30;99.90;;;;;;5078308;28;20535;-80
2023/01/09 05:25:53;;;;;;;8.18;1.58;;;8.30;99.90;;;;;;5078700;28;20178;-79
2023/01/09 05:28:19;;;;;;;8.73;1.77;;;8.20;99.90;;;;;;5089227;28;20167;-79
2023/01/09 05:30:46;;;;;;;5.65;1.40;;;8.20;99.90;;;;;;5091792;28;20178;-81
2023/01/09 05:33:12;;;;;;;3.67;1.35;;;8.10;99.90;;;;;;5078328;28;20170;-80
2023/01/09 05:35:37;;;;;;;7.35;1.10;;;8.10;99.90;;;;;;5077454;28;20224;-80
2023/01/09 05:38:03;;;;;;;7.57;1.65;;;8.10;99.90;;;;;;5078526;28;20171;-80
2023/01/09 05:40:29;;;;;;;7.18;1.40;;;8.10;99.90;;;;;;5077625;28;20158;-81
2023/01/09 05:42:54;;;;;;;6.07;1.48;;;8.20;99.90;;;;;;5078918;28;20176;-83
2023/01/09 05:45:20;;;;;;;7.28;1.40;;;8.30;99.90;;;;;;5077342;28;20198;-80
2023/01/09 05:47:45;;;;;;;14.40;1.17;;;8.30;99.90;;;;;;5077523;28;20167;-83
2023/01/09 05:50:12;;;;;;;12.85;1.95;;;8.40;99.90;;;;;;5076696;28;20238;-80
2023/01/09 05:52:38;;;;;;;7.43;1.20;;;8.50;99.90;;;;;;5076317;28;20307;-79
2023/01/09 05:55:05;;;;;;;10.68;1.33;;;8.50;99.90;;;;;;5074581;28;20604;-84
2023/01/09 05:57:31;;;;;;;4.50;0.93;;;8.50;99.90;;;;;;5075423;28;20590;-80
2023/01/09 05:59:56;;;;;;;14.90;1.75;;;8.50;99.90;;;;;;5077735;28;20173;-85
2023/01/09 06:02:22;;;;;;;8.05;1.77;;;8.50;99.90;;;;;;5079062;28;20626;-84
2023/01/09 06:04:48;;;;;;;7.72;1.33;;;8.50;99.90;;;;;;5077253;28;20196;-79
2023/01/09 06:07:13;;;;;;;8.45;1.63;;;8.40;99.90;;;;;;5075042;28;20170;-80
2023/01/09 06:09:39;;;;;;;2.35;1.35;;;8.40;99.90;;;;;;5073486;28;20608;-81
2023/01/09 06:12:05;;;;;;;6.57;1.25;;;8.40;99.90;;;;;;5074182;28;20246;-79
2023/01/09 06:14:30;;;;;;;5.57;1.80;;;8.40;99.90;;;;;;5074920;28;20667;-80
2023/01/09 06:16:56;;;;;;;4.30;1.50;;;8.40;99.90;;;;;;5073387;28;20171;-80
2023/01/09 06:19:22;;;;;;;9.43;1.13;;;8.40;99.90;;;;;;5074837;28;20521;-80
2023/01/09 06:21:47;;;;;;;5.50;1.13;;;8.40;99.90;;;;;;5074060;28;20174;-80
2023/01/09 06:24:13;;;;;;;6.18;1.27;;;8.40;99.90;;;;;;5073218;28;20197;-79
2023/01/09 06:26:38;;;;;;;8.40;1.30;;;8.50;99.90;;;;;;5073257;28;20225;-82
2023/01/09 06:29:04;;;;;;;7.13;1.67;;;8.40;99.90;;;;;;5073313;28;20210;-80
2023/01/09 06:31:30;;;;;;;1.65;1.05;;;8.30;99.90;;;;;;5073717;28;20223;-80
2023/01/09 06:33:56;;;;;;;6.07;1.27;;;8.30;99.90;;;;;;5073902;28;20191;-79
2023/01/09 06:36:21;;;;;;;2.97;0.88;;;8.30;99.90;;;;;;5072773;28;20163;-79
2023/01/09 06:38:47;;;;;;;10.55;0.77;;;8.30;99.90;;;;;;5074822;28;20220;-79
2023/01/09 06:41:12;;;;;;;5.80;0.95;;;8.30;99.90;;;;;;5074080;28;20186;-80
2023/01/09 06:43:38;;;;;;;5.47;1.00;;;8.30;99.90;;;;;;5073946;28;20658;-79
2023/01/09 06:46:04;;;;;;;4.15;0.70;;;8.40;99.90;;;;;;5073912;28;20249;-80
2023/01/09 06:48:31;;;;;;;8.52;0.90;;;8.50;99.90;;;;;;5072537;28;20169;-79
2023/01/09 06:50:57;;;;;;;6.53;1.23;;;8.40;99.90;;;;;;5074243;28;20576;-80
2023/01/09 06:53:23;;;;;;;5.32;0.93;;;8.40;99.90;;;;;;5073897;28;20192;-78
2023/01/09 06:55:48;;;;;;;1.65;0.82;;;8.50;99.90;;;;;;5073956;28;20178;-82
2023/01/09 06:58:14;;;;;;;2.72;0.80;;;8.50;99.90;;;;;;5073822;28;20626;-84
2023/01/09 07:00:40;;;;;;;1.05;0.52;;;8.40;99.90;;;;;;5072279;28;20628;-79
2023/01/09 07:03:06;;;;;;;7.20;1.00;;;8.50;99.90;;;;;;5073800;28;20194;-81
2023/01/09 07:05:37;;;;;;;5.35;1.00;;;8.40;99.90;;;;;;5074720;28;20174;-79
2023/01/09 07:08:02;;;;;;;2.58;0.60;;;8.40;99.90;;;;;;5074055;28;20173;-84
2023/01/09 07:10:28;;;;;;;3.80;1.00;;;8.40;99.90;;;;;;5071997;28;20206;-79
2023/01/09 07:12:54;;;;;;;3.80;0.73;;;8.50;99.90;;;;;;5073176;28;20630;-80
2023/01/09 07:15:19;;;;;;;1.30;0.70;;;8.40;99.90;;;;;;5073040;28;20239;-81
2023/01/09 07:17:45;;;;;;;3.10;0.80;;;8.40;99.90;;;;;;5073156;28;20560;-83
2023/01/09 07:20:10;;;;;;;3.03;1.13;;;8.50;99.90;;;;;;5071732;28;20166;-80
2023/01/09 07:22:36;;;;;;;7.53;0.90;;;8.60;99.90;;;;;;5073042;28;20609;-80
2023/01/09 07:25:02;;;;;;;3.85;0.98;;;8.60;99.90;;;;;;5072344;28;20192;-81
2023/01/09 07:27:27;;;;;;;2.65;0.93;;;8.60;99.90;;;;;;5070730;28;20607;-81
2023/01/09 07:29:53;;;;;;;3.05;0.77;;;8.60;99.90;;;;;;5074158;28;20202;-81
2023/01/09 07:32:19;;;;;;;4.13;1.08;;;8.60;99.90;;;;;;5081432;28;20210;-81
2023/01/09 07:34:44;;;;;;;5.50;0.98;;;8.50;99.90;;;;;;5088151;28;20193;-81
2023/01/09 07:37:10;;;;;;;1.85;0.98;;;8.50;99.90;;;;;;5084411;28;20202;-82
2023/01/09 07:39:35;;;;;;;1.27;0.80;;;8.50;99.90;;;;;;5070065;28;20182;-81
2023/01/09 07:42:01;;;;;;;1.85;0.90;;;8.60;99.90;;;;;;5071079;28;20170;-81
2023/01/09 07:44:27;;;;;;;6.40;1.00;;;8.60;99.90;;;;;;5072561;28;20198;-81
2023/01/09 07:46:52;;;;;;;2.50;1.08;;;8.50;99.90;;;;;;5071511;28;20167;-81
2023/01/09 07:49:18;;;;;;;4.35;1.13;;;8.40;99.90;;;;;;5070967;28;20666;-80
2023/01/09 07:51:44;;;;;;;3.85;1.00;;;8.50;99.90;;;;;;5077555;28;20184;-85
2023/01/09 07:54:11;;;;;;;5.88;1.40;;;8.40;99.90;;;;;;5071349;28;20194;-81
2023/01/09 07:56:38;;;;;;;1.10;0.88;;;8.40;99.90;;;;;;5071234;28;20576;-81
2023/01/09 07:59:04;;;;;;;3.70;0.98;;;8.40;99.90;;;;;;5069262;28;20542;-80
2023/01/09 08:01:30;;;;;;;8.25;0.98;;;8.40;99.90;;;;;;5070208;28;20176;-80
2023/01/09 08:03:55;;;;;;;10.13;1.17;;;8.40;99.90;;;;;;5069584;28;20269;-81
2023/01/09 08:06:21;;;;;;;5.82;1.17;;;8.50;99.90;;;;;;5068939;28;20545;-81
2023/01/09 08:08:46;;;;;;;3.92;1.20;;;8.50;99.90;;;;;;5070406;28;20830;-82
2023/01/09 08:11:12;;;;;;;0.95;0.75;;;8.50;99.90;;;;;;5070000;28;20905;-83
2023/01/09 08:13:37;;;;;;;3.65;1.02;;;8.50;99.90;;;;;;5071424;28;20194;-83
2023/01/09 08:16:04;;;;;;;8.25;1.45;;;8.50;99.90;;;;;;5066750;28;20279;-81
2023/01/09 08:18:30;;;;;;;3.00;1.50;;;8.50;99.90;;;;;;5072346;28;20177;-81
2023/01/09 08:20:56;;;;;;;2.92;1.20;;;8.60;99.90;;;;;;5071444;28;20618;-85
2023/01/09 08:23:21;;;;;;;3.28;0.80;;;8.50;99.90;;;;;;5066044;28;20167;-81
2023/01/09 08:25:47;;;;;;;4.68;1.10;;;8.50;99.90;;;;;;5058238;28;20184;-82
2023/01/09 08:28:12;;;;;;;2.63;1.95;;;8.50;99.90;;;;;;5069774;28;20178;-83
2023/01/09 08:30:38;;;;;;;3.70;0.98;;;8.60;99.90;;;;;;5066926;28;20222;-78
2023/01/09 08:33:07;;;;;;;4.90;1.45;;;8.50;99.90;;;;;;5068562;28;20167;-83
2023/01/09 08:35:32;;;;;;;3.53;0.95;;;8.40;99.90;;;;;;5071211;28;20163;-84
2023/01/09 08:37:58;;;;;;;2.70;1.45;;;8.50;99.90;;;;;;5074241;28;20162;-79
2023/01/09 08:40:24;;;;;;;4.68;0.90;;;8.50;99.90;;;;;;5075055;28;20675;-79
2023/01/09 08:48:17;;;;;;;2.47;0.70;;;8.60;99.90;;;;;;5075260;28;20637;-79
2023/01/09 08:50:45;;;;;;;3.03;0.70;;;8.60;99.90;;;;;;5074267;28;20202;-80
2023/01/09 08:53:11;;;;;;;9.50;0.90;;;8.50;99.90;;;;;;5073786;28;20182;-78
2023/01/09 08:55:37;;;;;;;3.40;0.80;;;8.60;99.90;;;;;;5075284;28;20167;-87
2023/01/09 08:58:03;;;;;;;1.88;0.85;;;8.50;99.90;;;;;;5072220;28;20213;-81
2023/01/09 09:00:29;;;;;;;1.50;0.75;;;8.60;99.90;;;;;;5072253;28;20488;-80
2023/01/09 09:02:58;;;;;;;2.78;0.85;;;8.60;99.90;;;;;;5073042;28;20261;-80
2023/01/09 09:05:26;;;;;;;6.45;0.73;;;8.50;99.90;;;;;;5062388;28;20194;-80
2023/01/09 09:07:55;;;;;;;0.50;0.45;;;8.40;99.90;;;;;;5072429;28;20647;-80
2023/01/09 09:10:31;;;;;;;1.02;0.43;;;8.40;99.90;;;;;;5072603;28;20214;-80
2023/01/09 09:12:58;;;;;;;3.00;0.50;;;8.40;99.90;;;;;;5073260;28;20751;-79
2023/01/09 09:15:25;;;;;;;0.82;0.43;;;8.40;99.90;;;;;;5070221;28;20635;-79
2023/01/09 09:17:56;;;;;;;4.25;1.00;;;8.50;99.90;;;;;;5072330;28;20174;-80
2023/01/09 09:20:25;;;;;;;2.75;0.88;;;8.50;99.90;;;;;;5073644;28;20261;-80
2023/01/09 09:22:51;;;;;;;1.35;0.88;;;8.50;99.90;;;;;;5073525;28;20647;-80
2023/01/09 09:25:17;;;;;;;3.42;0.70;;;8.50;99.90;;;;;;5073242;28;20202;-79
2023/01/09 09:27:43;;;;;;;2.08;0.88;;;8.40;99.90;;;;;;5073628;28;20249;-80
2023/01/09 09:30:11;;;;;;;0.88;0.70;;;8.50;99.90;;;;;;5072430;28;20678;-82
2023/01/09 09:32:37;;;;;;;3.60;0.95;;;8.50;99.90;;;;;;5073027;28;20175;-81
2023/01/09 09:35:07;;;;;;;2.03;0.80;;;8.50;99.90;;;;;;5073722;28;20216;-81
2023/01/09 09:37:33;;;;;;;1.67;0.60;;;8.60;99.90;;;;;;5072654;28;20163;-84
2023/01/09 09:39:59;;;;;;;1.17;0.63;;;8.70;99.90;;;;;;5073071;28;20203;-82
2023/01/09 09:45:42;;;;;;;2.08;0.60;;;8.70;99.90;;;;;;5073665;28;20589;-78
2023/01/09 09:48:56;;;;;;;1.77;0.85;;;8.60;99.90;;;;;;5072076;28;20178;-79
2023/01/09 09:51:57;;;;;;;3.35;0.70;;;8.70;99.90;;;;;;5070354;28;20610;-78
2023/01/09 09:54:31;;;;;;;1.48;0.70;;;8.60;99.90;;;;;;5054629;28;20752;-79
2023/01/09 09:57:01;;;;;;;2.60;0.70;;;8.60;99.90;;;;;;5071482;28;20178;-78
2023/01/09 09:59:32;;;;;;;3.25;1.63;;;8.60;99.90;;;;;;5072664;28;20172;-78
2023/01/09 10:02:16;;;;;;;1.33;0.70;;;8.80;99.90;;;;;;5072544;28;20212;-78
2023/01/09 10:04:47;;;;;;;4.22;1.15;;;8.90;99.90;;;;;;5070189;28;20329;-78
2023/01/09 10:07:30;;;;;;;5.15;0.93;;;8.80;99.90;;;;;;5072229;28;20182;-79
2023/01/09 10:10:00;;;;;;;0.90;0.60;;;8.70;99.90;;;;;;5072850;28;20207;-78
2023/01/09 10:12:30;;;;;;;0.80;0.50;;;8.70;99.90;;;;;;5072204;28;20300;-78
2023/01/09 10:15:01;;;;;;;2.60;1.00;;;8.80;99.90;;;;;;5072272;28;20190;-78
2023/01/09 10:17:35;;;;;;;0.75;0.45;;;8.80;99.90;;;;;;5064807;28;20176;-79
2023/01/09 10:20:20;;;;;;;1.05;0.80;;;8.70;99.90;;;;;;5059288;28;20170;-79
2023/01/09 10:23:04;;;;;;;1.15;0.90;;;8.70;99.90;;;;;;5065470;23;20360;-84
2023/01/09 10:26:06;;;;;;;1.70;0.80;;;8.80;99.90;;;;;;5015460;28;20564;-88
2023/01/09 10:29:06;;;;;;;1.45;0.50;;;8.80;99.90;;;;;;5030127;28;20195;-86
2023/01/09 10:31:36;;;;;;;1.20;0.65;;;8.80;99.90;;;;;;5016637;28;20195;-90
2023/01/09 10:34:53;;;;;;;2.85;0.63;;;8.90;99.90;;;;;;5015563;28;20604;-87
2023/01/09 10:37:31;;;;;;;2.25;0.82;;;8.90;99.90;;;;;;5015571;28;20176;-86
2023/01/09 10:40:17;;;;;;;0.75;0.60;;;9.00;99.90;;;;;;5030646;28;20180;-80
2023/01/09 10:42:58;;;;;;;0.82;0.45;;;8.90;99.90;;;;;;5017037;28;20161;-86
2023/01/09 10:45:45;;;;;;;1.23;0.65;;;8.80;99.90;;;;;;5023893;28;20208;-78
2023/01/09 10:48:35;;;;;;;1.83;0.90;;;8.90;99.90;;;;;;4995941;28;20252;-86
2023/01/09 10:51:13;;;;;;;0.63;0.60;;;9.10;99.90;;;;;;5008341;28;20230;-80
2023/01/09 10:53:44;;;;;;;2.60;0.73;;;9.00;99.90;;;;;;5002220;28;20200;-79
2023/01/09 10:56:21;;;;;;;3.38;0.95;;;8.90;99.90;;;;;;5011568;28;20180;-78
2023/01/09 10:58:47;;;;;;;1.38;0.80;;;9.10;99.90;;;;;;5013113;28;20200;-81
2023/01/09 11:01:13;;;;;;;1.90;0.90;;;9.10;99.90;;;;;;5014597;28;20165;-84
2023/01/09 11:03:39;;;;;;;1.60;1.25;;;9.10;99.90;;;;;;5014430;28;20196;-87
2023/01/09 11:06:18;;;;;;;1.77;0.73;;;9.20;99.90;;;;;;5015445;28;20784;-87
2023/01/09 11:08:45;;;;;;;3.03;1.17;;;9.20;99.90;;;;;;5014281;28;20269;-87
2023/01/09 11:11:13;;;;;;;2.25;0.68;;;9.10;99.90;;;;;;5015066;28;20219;-89
2023/01/09 11:13:45;;;;;;;1.40;1.05;;;8.90;99.90;;;;;;5014766;28;20180;-88
2023/01/09 11:16:19;;;;;;;7.50;1.15;;;8.80;99.90;;;;;;5015004;28;20514;-86
2023/01/09 11:19:00;;;;;;;1.10;0.85;;;8.80;99.90;;;;;;5014685;28;20160;-85
2023/01/09 11:21:34;;;;;;;1.30;1.02;;;8.90;99.90;;;;;;5015962;28;20200;-87
2023/01/09 11:24:20;;;;;;;1.70;1.05;;;8.90;99.90;;;;;;5012658;28;20203;-87
2023/01/09 11:26:47;;;;;;;2.75;1.33;;;9.00;99.90;;;;;;5014290;28;20504;-85
2023/01/09 11:29:16;;;;;;;6.82;1.48;;;9.00;99.90;;;;;;5014382;28;20214;-84
2023/01/09 11:31:53;;;;;;;3.88;1.20;;;9.20;99.90;;;;;;5014413;28;20160;-86
2023/01/09 11:34:22;;;;;;;4.07;1.25;;;9.40;99.90;;;;;;5014685;28;20206;-85
2023/01/09 11:36:50;;;;;;;1.20;1.10;;;9.30;99.90;;;;;;5014112;28;20161;-86
2023/01/09 11:39:26;;;;;;;2.05;1.23;;;9.10;99.90;;;;;;5013899;28;20194;-85
2023/01/09 11:41:54;;;;;;;6.35;0.95;;;9.30;99.90;;;;;;5014314;28;20175;-85
2023/01/09 11:44:20;;;;;;;1.90;0.70;;;9.30;99.90;;;;;;5013927;28;20291;-83
2023/01/09 11:46:46;;;;;;;5.18;0.90;;;9.30;99.90;;;;;;5013689;28;20200;-82
2023/01/09 11:49:16;;;;;;;1.40;1.10;;;9.10;99.90;;;;;;5014253;28;20250;-86
2023/01/09 11:51:42;;;;;;;2.47;1.40;;;9.10;99.90;;;;;;5013846;28;20169;-85
2023/01/09 11:54:14;;;;;;;11.60;1.38;;;9.20;99.90;;;;;;5014147;28;20192;-85
2023/01/09 11:56:40;;;;;;;3.33;1.13;;;9.30;99.90;;;;;;5013931;28;20183;-84
2023/01/09 11:59:14;;;;;;;4.55;1.30;;;9.40;99.90;;;;;;5013527;28;20164;-83
2023/01/09 12:01:51;;;;;;;3.50;1.00;;;9.40;99.90;;;;;;5011881;28;20172;-86
2023/01/09 12:04:23;;;;;;;6.40;1.13;;;9.40;99.90;;;;;;5012085;28;20192;-84
2023/01/09 12:07:24;;;;;;;3.03;1.17;;;9.50;99.90;;;;;;5013853;28;20184;-85
2023/01/09 12:10:01;;;;;;;1.77;1.10;;;9.50;99.90;;;;;;5012903;28;20215;-85
2023/01/09 12:12:32;;;;;;;1.23;0.90;;;9.50;99.90;;;;;;5015598;28;20169;-85
2023/01/09 12:15:16;;;;;;;5.43;1.60;;;9.60;99.90;;;;;;5034693;28;20204;-82
2023/01/09 12:18:30;;;;;;;7.82;1.80;;;9.40;99.90;;;;;;5018629;28;20648;-83
2023/01/09 12:21:04;;;;;;;9.48;1.58;;;9.20;99.90;;;;;;4988210;28;20228;-79
2023/01/09 12:23:36;;;;;;;5.15;1.33;;;9.40;99.90;;;;;;5028482;28;20199;-83
2023/01/09 12:26:43;;;;;;;7.10;1.27;;;9.60;99.90;;;;;;5012118;28;20250;-88
2023/01/09 12:29:24;;;;;;;2.90;1.60;;;9.70;99.90;;;;;;4975792;28;20741;-88
2023/01/09 12:32:13;;;;;;;5.35;1.17;;;10.00;99.90;;;;;;4994003;28;20220;-84
2023/01/09 12:34:58;;;;;;;4.53;1.60;;;10.10;99.90;;;;;;4995836;28;20208;-85
2023/01/09 12:37:38;;;;;;;4.07;1.92;;;10.30;99.90;;;;;;4996183;28;20203;-86
2023/01/09 12:40:15;;;;;;;3.80;1.85;;;10.20;99.90;;;;;;4994131;28;20170;-85
2023/01/09 12:42:47;;;;;;;5.53;2.25;;;10.20;99.90;;;;;;4995516;28;20180;-84
2023/01/09 12:45:48;;;;;;;7.93;1.55;;;10.00;99.90;;;;;;4993885;28;20240;-86
2023/01/09 12:48:32;;;;;;;6.45;2.47;;;10.20;99.90;;;;;;4994957;28;20283;-85
2023/01/09 12:51:35;;;;;;;3.88;2.42;;;10.30;99.90;;;;;;5008796;28;20188;-84
2023/01/09 12:54:10;;;;;;;6.57;1.80;;;10.10;99.90;;;;;;4994899;28;20189;-84
2023/01/09 12:56:40;;;;;;;9.70;1.73;;;10.10;99.90;;;;;;4993761;28;20641;-84
2023/01/09 12:59:20;;;;;;;7.05;1.80;;;10.00;99.90;;;;;;4993560;28;20356;-85
2023/01/09 13:01:48;;;;;;;15.95;1.50;;;10.20;99.90;;;;;;4994253;28;20268;-83
2023/01/09 13:04:34;;;;;;;4.65;1.92;;;10.20;99.90;;;;;;4993698;28;20181;-87
2023/01/09 13:07:11;;;;;;;3.22;1.65;;;10.40;99.90;;;;;;4993361;28;20641;-85
2023/01/09 13:10:29;;;;;;;5.50;1.80;;;10.50;99.90;;;;;;4993826;28;20296;-87
2023/01/09 13:12:57;;;;;;;5.68;1.83;;;10.40;99.90;;;;;;4992780;28;20564;-84
2023/01/09 13:15:41;;;;;;;6.35;1.80;;;10.40;99.90;;;;;;4994072;28;20308;-83
2023/01/09 13:18:15;;;;;;;7.45;1.88;;;10.40;99.90;;;;;;4993028;28;20169;-85
2023/01/09 13:20:49;;;;;;;5.47;2.00;;;10.40;99.90;;;;;;4993066;28;20174;-82
2023/01/09 13:23:27;;;;;;;17.25;1.80;;;10.30;99.90;;;;;;4996467;28;20212;-84
2023/01/09 13:26:00;;;;;;;7.20;1.98;;;10.30;99.90;;;;;;5012162;28;20260;-84
2023/01/09 13:28:30;;;;;;;18.00;2.22;;;10.40;99.90;;;;;;4997627;28;20664;-86